Time;durP1;ratioP1;P1;durP2;ratioP2;P2;SDS_P1;SDS_P2;PMS_P1;PMS_P2;Temp;Humidity;BMP_temperature;BMP_pressure;BME280_temperature;BME280_humidity;BME280_pressure;Samples;Min_cycle;Max_cycle;Signal;HPM_P1;HPM_P2
2020/12/22 00:01:07;;;;;;;239.07;115.00;;;;;;;-1.75;92.04;99752.60;4494414;78;21770;-85
2020/12/22 00:07:08;;;;;;;285.37;126.43;;;;;;;-1.75;92.46;99748.05;4485408;78;21112;-84
2020/12/22 00:13:10;;;;;;;317.40;141.33;;;;;;;-1.75;92.62;99737.84;4489572;78;21149;-85
2020/12/22 00:19:11;;;;;;;317.33;139.13;;;;;;;-1.76;92.79;99727.66;4494754;78;21148;-85
2020/12/22 00:25:13;;;;;;;214.23;100.13;;;;;;;-1.75;92.55;99731.94;4487230;78;21149;-85
2020/12/22 00:37:26;;;;;;;266.53;119.40;;;;;;;-1.75;92.17;99713.69;4429529;78;22861;-84
2020/12/22 00:43:27;;;;;;;300.20;132.50;;;;;;;-1.87;91.95;99722.61;4392272;79;21378;-85
2020/12/22 00:49:29;;;;;;;306.07;137.23;;;;;;;-2.04;91.58;99721.63;4388339;79;21599;-86
2020/12/22 00:55:30;;;;;;;316.27;141.90;;;;;;;-2.06;91.98;99714.39;4389153;79;21501;-84
2020/12/22 01:01:32;;;;;;;321.57;138.33;;;;;;;-2.16;91.62;99701.01;4389846;79;21616;-85
2020/12/22 01:07:34;;;;;;;330.13;139.57;;;;;;;-2.31;91.88;99690.88;4388996;79;21352;-84
2020/12/22 01:13:35;;;;;;;336.43;141.13;;;;;;;-2.38;92.00;99684.47;4390892;79;21765;-84
2020/12/22 01:19:37;;;;;;;317.00;137.47;;;;;;;-2.46;91.50;99673.52;4389535;79;21169;-84
2020/12/22 01:25:39;;;;;;;307.03;139.63;;;;;;;-2.56;91.68;99660.14;4388913;79;21180;-85
2020/12/22 01:31:41;;;;;;;300.40;130.90;;;;;;;-2.54;92.09;99643.25;4382365;79;21200;-88
2020/12/22 01:37:42;;;;;;;286.57;133.07;;;;;;;-2.53;91.98;99642.98;4388981;79;21654;-85
2020/12/22 01:44:07;;;;;;;240.20;105.20;;;;;;;-2.59;91.64;99641.93;4392301;79;21181;-85
2020/12/22 01:50:08;;;;;;;243.33;106.97;;;;;;;-2.64;92.00;99644.09;4387138;79;21315;-85
2020/12/22 01:56:10;;;;;;;263.40;120.73;;;;;;;-2.51;92.26;99646.73;4383958;79;21340;-84
2020/12/22 02:02:12;;;;;;;227.03;99.60;;;;;;;-2.50;92.23;99642.96;4388479;79;21225;-84
2020/12/22 02:08:13;;;;;;;197.07;89.87;;;;;;;-2.48;92.06;99618.03;4389634;79;21551;-84
2020/12/22 02:14:15;;;;;;;221.63;101.13;;;;;;;-2.64;91.68;99616.48;4388990;79;21269;-84
2020/12/22 02:20:18;;;;;;;193.13;85.07;;;;;;;-2.66;92.00;99603.35;4390266;79;21225;-84
2020/12/22 02:26:21;;;;;;;179.43;82.53;;;;;;;-2.63;92.00;99618.10;4390946;79;21200;-85
2020/12/22 02:32:22;;;;;;;180.20;76.17;;;;;;;-2.62;92.08;99620.51;4386708;79;21221;-85
2020/12/22 02:38:23;;;;;;;182.97;78.57;;;;;;;-2.56;91.98;99618.59;4360310;80;21208;-84
2020/12/22 02:44:25;;;;;;;175.27;74.20;;;;;;;-2.74;91.85;99605.81;4360599;80;21172;-84
2020/12/22 02:50:26;;;;;;;197.80;82.70;;;;;;;-2.83;91.63;99583.31;4362056;80;21275;-84
2020/12/22 02:56:30;;;;;;;207.67;87.57;;;;;;;-2.96;91.39;99575.32;4359260;80;21618;-84
2020/12/22 03:02:31;;;;;;;197.10;85.70;;;;;;;-3.03;91.80;99558.75;4363360;80;21157;-84
2020/12/22 03:08:33;;;;;;;203.87;87.00;;;;;;;-3.11;91.47;99541.09;4366895;80;21133;-84
2020/12/22 03:14:34;;;;;;;192.37;89.83;;;;;;;-3.14;91.88;99540.30;4363879;80;21649;-84
2020/12/22 03:20:36;;;;;;;199.00;86.63;;;;;;;-3.06;92.11;99549.92;4353617;80;21181;-84
2020/12/22 03:26:38;;;;;;;189.93;81.50;;;;;;;-3.03;92.02;99552.05;4361066;80;21835;-84
2020/12/22 03:32:40;;;;;;;196.77;82.67;;;;;;;-2.95;92.24;99560.88;4365337;80;21677;-84
2020/12/22 03:38:42;;;;;;;185.40;78.27;;;;;;;-2.80;92.49;99543.94;4368189;80;21161;-85
2020/12/22 03:44:45;;;;;;;179.50;78.50;;;;;;;-2.76;91.84;99531.59;4362355;80;21135;-84
2020/12/22 03:50:47;;;;;;;186.30;81.63;;;;;;;-2.88;91.72;99521.18;4361170;80;21630;-83
2020/12/22 03:56:48;;;;;;;174.97;75.50;;;;;;;-2.77;92.20;99521.95;4360942;80;21669;-84
2020/12/22 04:02:50;;;;;;;157.80;74.47;;;;;;;-2.76;91.89;99508.28;4364523;80;21788;-85
2020/12/22 04:08:53;;;;;;;172.20;74.47;;;;;;;-2.79;91.93;99502.66;4361242;80;21635;-84
2020/12/22 04:14:55;;;;;;;165.03;76.40;;;;;;;-2.80;91.69;99493.81;4365145;80;21178;-84
2020/12/22 04:20:58;;;;;;;164.93;74.40;;;;;;;-2.77;91.99;99502.64;4358081;80;21178;-84
2020/12/22 04:26:59;;;;;;;168.17;74.33;;;;;;;-2.84;91.67;99507.52;4360335;80;21205;-84
2020/12/22 04:33:01;;;;;;;184.77;80.67;;;;;;;-2.86;91.90;99480.72;4360442;79;21240;-84
2020/12/22 04:39:04;;;;;;;172.93;75.73;;;;;;;-2.77;92.13;99467.02;4390219;79;21204;-84
2020/12/22 04:45:05;;;;;;;175.80;77.07;;;;;;;-2.77;91.96;99472.38;4393283;79;22375;-84
2020/12/22 04:51:08;;;;;;;174.07;81.33;;;;;;;-2.82;91.74;99468.39;4391446;79;21149;-83
2020/12/22 04:57:14;;;;;;;187.17;81.60;;;;;;;-2.74;92.22;99479.31;4393444;79;21166;-84
2020/12/22 05:03:17;;;;;;;186.43;80.63;;;;;;;-2.66;92.03;99461.31;4388027;79;21173;-84
2020/12/22 05:09:18;;;;;;;173.67;73.33;;;;;;;-2.68;91.89;99455.98;4388339;79;21594;-84
2020/12/22 05:15:20;;;;;;;156.20;67.50;;;;;;;-2.63;92.20;99455.95;4388916;79;21626;-84
2020/12/22 05:21:22;;;;;;;145.73;67.27;;;;;;;-2.52;92.19;99442.19;4393795;79;21176;-84
2020/12/22 05:27:24;;;;;;;138.83;64.53;;;;;;;-2.50;92.15;99426.62;4382529;79;21149;-84
2020/12/22 05:33:26;;;;;;;151.23;68.13;;;;;;;-2.47;92.08;99429.28;4385224;79;21189;-84
2020/12/22 05:39:28;;;;;;;147.97;65.50;;;;;;;-2.48;92.05;99429.84;4365507;80;21749;-84
2020/12/22 05:45:38;;;;;;;179.23;71.43;;;;;;;-2.44;92.21;99416.13;4353469;80;21212;-84
2020/12/22 05:58:12;;;;;;;163.27;70.73;;;;;;;-2.16;92.65;99405.96;4509775;76;22972;-85
2020/12/22 06:04:18;;;;;;;156.40;71.57;;;;;;;-2.09;92.54;99401.61;4409720;79;21159;-85
2020/12/22 06:10:22;;;;;;;161.05;74.90;;;;;;;-2.08;92.23;99389.27;4409587;79;21156;-84
2020/12/22 06:16:24;;;;;;;174.73;76.63;;;;;;;-2.03;92.40;99390.56;4406462;79;21921;-85
2020/12/22 06:22:28;;;;;;;178.40;79.80;;;;;;;-1.94;92.59;99387.51;4416832;79;21188;-84
2020/12/22 06:28:29;;;;;;;198.17;83.47;;;;;;;-1.90;92.34;99387.22;4309486;81;21649;-84
2020/12/22 06:34:31;;;;;;;199.83;83.97;;;;;;;-1.86;92.36;99370.80;4272686;81;21253;-84
2020/12/22 06:40:55;;;;;;;153.43;73.27;;;;;;;-1.89;92.38;99363.84;4279070;81;21178;-84
2020/12/22 06:47:01;;;;;;;156.18;70.95;;;;;;;-1.95;92.11;99354.25;4273601;81;21145;-84
2020/12/22 06:53:04;;;;;;;154.97;69.90;;;;;;;-2.01;92.31;99346.81;4278260;81;21217;-84
2020/12/22 06:59:08;;;;;;;167.40;73.90;;;;;;;-1.94;92.52;99339.75;4322725;81;21144;-84
2020/12/22 07:05:09;;;;;;;142.63;66.87;;;;;;;-1.89;92.59;99339.16;4248125;82;21188;-85
2020/12/22 07:11:21;;;;;;;157.60;68.17;;;;;;;-1.81;92.66;99339.88;4321650;80;21180;-84
2020/12/22 07:17:23;;;;;;;154.70;71.20;;;;;;;-1.77;92.47;99329.38;4340316;80;21204;-84
2020/12/22 07:23:25;;;;;;;158.23;70.47;;;;;;;-1.66;92.81;99327.61;4255106;82;21202;-85
2020/12/22 07:29:26;;;;;;;147.93;71.70;;;;;;;-1.54;92.71;99320.50;4259278;82;21632;-84
2020/12/22 07:35:29;;;;;;;152.90;73.30;;;;;;;-1.47;92.94;99322.27;4244764;82;21206;-84
2020/12/22 07:41:31;;;;;;;145.50;70.63;;;;;;;-1.25;93.13;99314.45;4253495;82;21174;-84
2020/12/22 07:47:34;;;;;;;164.70;77.63;;;;;;;-1.11;92.94;99318.01;4319405;81;21181;-85
2020/12/22 07:53:35;;;;;;;166.33;80.57;;;;;;;-1.07;93.00;99301.58;4315461;81;21206;-85
2020/12/22 07:59:37;;;;;;;161.43;80.07;;;;;;;-0.89;93.07;99289.22;4311865;81;21142;-84
2020/12/22 08:05:38;;;;;;;160.90;77.03;;;;;;;-0.73;93.27;99288.66;4216990;82;21184;-84
2020/12/22 08:11:40;;;;;;;165.37;79.57;;;;;;;-0.60;93.27;99275.02;4259233;82;21181;-85
2020/12/22 08:17:46;;;;;;;146.70;72.53;;;;;;;-0.38;93.35;99278.66;4310406;81;21172;-85
2020/12/22 08:23:48;;;;;;;127.00;60.20;;;;;;;-0.30;93.31;99284.67;4307961;81;21586;-85
2020/12/22 08:29:50;;;;;;;146.20;72.17;;;;;;;-0.22;93.39;99264.38;4263241;82;21193;-85
2020/12/22 08:35:51;;;;;;;144.05;71.87;;;;;;;-0.13;93.40;99264.73;4268726;82;21165;-85
2020/12/22 08:41:56;;;;;;;140.28;69.32;;;;;;;-0.04;93.54;99256.20;4277830;81;21137;-86
2020/12/22 08:47:59;;;;;;;149.00;69.90;;;;;;;-0.02;93.33;99240.53;4277626;81;21170;-85
2020/12/22 08:54:03;;;;;;;146.85;71.95;;;;;;;0.01;93.47;99223.01;4213490;82;21168;-86
2020/12/22 09:00:16;;;;;;;139.80;69.22;;;;;;;0.07;93.45;99205.65;4244411;82;21298;-85
2020/12/22 09:06:21;;;;;;;146.60;69.90;;;;;;;0.15;93.54;99196.87;4306725;81;21683;-85
2020/12/22 09:12:27;;;;;;;165.65;76.15;;;;;;;0.18;93.52;99198.95;4307597;81;21168;-85
2020/12/22 09:18:28;;;;;;;148.80;76.50;;;;;;;0.28;93.43;99184.48;4319954;81;21175;-86
2020/12/22 09:24:33;;;;;;;163.50;84.30;;;;;;;0.40;93.66;99151.07;4320335;81;21172;-86
2020/12/22 09:30:35;;;;;;;158.90;82.17;;;;;;;0.40;93.66;99151.07;4315667;81;21176;-85
2020/12/22 09:36:36;;;;;;;177.38;93.25;;;;;;;0.56;94.07;99138.31;4320420;81;21144;-86
2020/12/22 09:42:38;;;;;;;173.35;91.15;;;;;;;0.56;94.07;99138.31;4320275;81;21584;-86
2020/12/22 09:48:39;;;;;;;143.32;72.65;;;;;;;0.63;93.89;99140.00;4309390;81;21213;-86
2020/12/22 09:54:41;;;;;;;152.30;79.53;;;;;;;0.60;93.89;99111.53;4307802;81;21210;-85
2020/12/22 10:00:44;;;;;;;154.10;74.55;;;;;;;0.74;93.87;99133.81;4276755;81;21670;-85
2020/12/22 10:06:51;;;;;;;144.47;71.07;;;;;;;0.76;93.86;99136.46;4277747;81;21677;-85
2020/12/22 10:12:52;;;;;;;146.28;74.47;;;;;;;0.84;93.80;99128.18;4283011;81;21218;-86
2020/12/22 10:18:54;;;;;;;154.03;74.80;;;;;;;1.12;93.95;99097.25;4276463;81;21729;-86
2020/12/22 10:24:56;;;;;;;150.62;70.62;;;;;;;1.12;93.95;99097.25;4278277;81;21193;-86
2020/12/22 10:30:58;;;;;;;134.65;66.40;;;;;;;1.17;94.17;99097.92;4281138;81;21145;-86
2020/12/22 10:36:59;;;;;;;143.95;77.37;;;;;;;1.29;94.10;99091.38;4281250;81;21697;-86
2020/12/22 10:43:01;;;;;;;323.23;149.47;;;;;;;1.38;94.22;99086.80;4278397;81;21606;-87
2020/12/22 10:49:02;;;;;;;150.90;75.10;;;;;;;1.43;94.32;99077.23;4273990;81;21152;-87
2020/12/22 10:55:04;;;;;;;154.85;77.35;;;;;;;1.51;94.38;99067.02;4276348;81;21316;-87
2020/12/22 11:01:06;;;;;;;149.18;75.08;;;;;;;1.67;94.43;99059.27;4268140;81;21172;-87
2020/12/22 11:07:15;;;;;;;138.32;71.47;;;;;;;1.75;94.16;99040.95;4266785;81;21149;-86
2020/12/22 11:13:11;;;;;;;141.92;71.75;;;;;;;1.68;94.23;99035.79;4273583;81;21349;-86
2020/12/22 11:19:12;;;;;;;143.43;73.78;;;;;;;1.73;94.24;99020.22;4279709;81;21162;-85
2020/12/22 11:25:15;;;;;;;152.75;76.22;;;;;;;1.82;94.33;99013.50;4272391;81;21222;-86
2020/12/22 11:31:18;;;;;;;156.85;78.15;;;;;;;1.89;94.44;99011.91;4278255;81;21157;-86
2020/12/22 11:37:19;;;;;;;148.47;77.25;;;;;;;1.89;94.30;99028.65;4278860;81;21648;-85
2020/12/22 11:43:21;;;;;;;152.43;83.92;;;;;;;1.87;94.26;99034.91;4271752;81;21244;-85
2020/12/22 11:49:22;;;;;;;160.07;87.37;;;;;;;1.87;94.15;99019.52;4279406;81;21205;-85
2020/12/22 11:55:25;;;;;;;174.95;93.35;;;;;;;1.79;94.41;99008.16;4283253;81;21216;-85
2020/12/22 12:01:28;;;;;;;167.75;87.25;;;;;;;1.87;94.86;99000.63;4229735;83;21314;-86
2020/12/22 12:07:31;;;;;;;158.05;83.22;;;;;;;1.87;94.63;98977.68;4226321;83;21348;-86
2020/12/22 12:13:32;;;;;;;155.30;81.92;;;;;;;2.02;94.89;98994.73;4228823;83;21633;-86
2020/12/22 12:19:34;;;;;;;175.18;90.03;;;;;;;2.10;94.64;98966.16;4131854;83;34199;-85
2020/12/22 12:25:35;;;;;;;165.30;89.17;;;;;;;2.19;95.21;98952.08;4107039;86;21198;-85
2020/12/22 12:31:37;;;;;;;204.53;100.70;;;;;;;2.31;95.11;98957.05;4106948;86;21237;-86
2020/12/22 12:37:38;;;;;;;188.72;96.92;;;;;;;2.39;95.10;98961.64;4125088;85;21329;-86
2020/12/22 12:43:40;;;;;;;180.72;90.67;;;;;;;2.44;95.12;98947.97;4117211;86;21213;-86
2020/12/22 12:49:43;;;;;;;185.05;96.00;;;;;;;2.46;95.14;98955.75;4111731;86;21684;-86
2020/12/22 12:55:45;;;;;;;185.55;94.40;;;;;;;2.57;95.16;98955.64;4120927;86;21310;-86
2020/12/22 13:01:46;;;;;;;198.30;101.72;;;;;;;2.64;95.16;98964.83;4122504;86;22579;-85
2020/12/22 13:07:48;;;;;;;183.03;92.37;;;;;;;2.67;95.25;98960.12;4132169;86;21318;-86
2020/12/22 13:13:51;;;;;;;201.22;104.10;;;;;;;2.64;95.18;98959.97;4124222;86;21224;-86
2020/12/22 13:19:53;;;;;;;202.95;107.00;;;;;;;2.68;95.03;98948.19;4122326;86;21208;-85
2020/12/22 13:25:54;;;;;;;198.20;101.67;;;;;;;2.70;95.33;98947.86;4118802;86;21180;-86
2020/12/22 13:31:56;;;;;;;180.03;97.67;;;;;;;2.73;95.28;98932.34;4132190;86;21144;-86
2020/12/22 13:37:57;;;;;;;172.43;93.55;;;;;;;2.72;95.12;98933.47;4124138;86;21216;-85
2020/12/22 13:43:59;;;;;;;168.97;95.53;;;;;;;2.61;95.01;98933.05;4124539;86;21925;-86
2020/12/22 13:50:00;;;;;;;194.45;104.50;;;;;;;2.67;95.26;98922.83;4128271;86;21187;-86
2020/12/22 13:56:02;;;;;;;188.37;99.03;;;;;;;2.65;95.49;98929.11;4125171;85;21353;-85
2020/12/22 14:02:04;;;;;;;130.45;71.17;;;;;;;2.72;95.78;98936.98;4116341;86;21200;-85
2020/12/22 14:08:05;;;;;;;138.07;74.97;;;;;;;2.81;95.75;98926.91;4105155;86;21796;-86
2020/12/22 14:14:07;;;;;;;161.18;82.20;;;;;;;2.87;95.54;98934.27;4111621;86;21594;-86
2020/12/22 14:20:09;;;;;;;150.90;79.20;;;;;;;2.89;95.37;98940.14;4115176;86;21341;-87
2020/12/22 14:26:11;;;;;;;165.90;87.05;;;;;;;2.81;95.29;98940.42;4113492;86;21327;-86
2020/12/22 14:32:14;;;;;;;174.72;88.65;;;;;;;2.76;95.25;98950.06;4115425;86;21302;-86
2020/12/22 14:38:15;;;;;;;185.82;90.53;;;;;;;2.73;95.50;98946.66;4114776;86;21460;-85
2020/12/22 14:44:17;;;;;;;187.32;96.80;;;;;;;2.74;95.34;98949.59;4116933;86;21686;-86
2020/12/22 14:50:19;;;;;;;172.20;85.20;;;;;;;2.66;95.42;98941.53;4113931;86;21168;-86
2020/12/22 14:56:20;;;;;;;195.57;100.05;;;;;;;2.74;95.49;98939.35;4121887;86;21326;-85
2020/12/22 15:02:22;;;;;;;188.00;101.12;;;;;;;2.78;95.95;98939.72;4128454;86;21212;-86
2020/12/22 15:08:23;;;;;;;182.32;95.97;;;;;;;2.82;95.55;98947.95;4133847;86;21559;-86
2020/12/22 15:14:25;;;;;;;195.30;97.00;;;;;;;2.85;95.36;98948.69;4118638;86;21889;-86
2020/12/22 15:20:26;;;;;;;211.60;109.67;;;;;;;2.83;95.42;98941.45;4117961;86;22380;-87
2020/12/22 15:26:28;;;;;;;223.30;115.80;;;;;;;2.81;95.58;98944.48;4127809;86;21184;-86
2020/12/22 15:32:31;;;;;;;220.67;119.13;;;;;;;2.89;95.81;98946.36;4127347;86;21203;-85
2020/12/22 15:38:32;;;;;;;206.38;104.43;;;;;;;2.93;95.68;98940.52;4129200;86;21184;-86
2020/12/22 15:44:34;;;;;;;226.47;118.67;;;;;;;2.83;95.54;98932.79;4122355;86;21201;-86
2020/12/22 15:50:36;;;;;;;210.20;113.92;;;;;;;2.82;95.72;98927.13;4120327;86;21340;-86
2020/12/22 15:56:38;;;;;;;219.47;113.57;;;;;;;2.82;95.46;98925.78;4118999;86;21212;-86
2020/12/22 16:02:39;;;;;;;209.55;106.72;;;;;;;2.84;95.74;98924.91;4124664;86;21708;-86
2020/12/22 16:08:42;;;;;;;214.55;113.32;;;;;;;2.79;95.59;98925.63;4126692;86;21264;-86
2020/12/22 16:14:44;;;;;;;210.65;111.08;;;;;;;2.78;95.71;98931.62;4127116;86;21369;-86
2020/12/22 16:20:46;;;;;;;204.00;111.35;;;;;;;2.87;96.12;98922.90;4127764;86;21347;-86
2020/12/22 16:26:48;;;;;;;204.63;107.52;;;;;;;3.00;96.10;98927.84;4130472;86;21302;-86
2020/12/22 16:32:49;;;;;;;176.20;97.88;;;;;;;3.09;96.19;98929.93;4121632;86;21242;-86
2020/12/22 16:38:52;;;;;;;185.50;99.97;;;;;;;3.17;96.14;98941.27;4129515;86;21376;-85
2020/12/22 16:44:54;;;;;;;180.42;101.25;;;;;;;3.29;96.32;98932.45;4131301;86;22174;-86
2020/12/22 16:50:55;;;;;;;196.43;104.00;;;;;;;3.32;96.07;98931.78;4129089;86;21304;-86
2020/12/22 16:56:57;;;;;;;196.32;107.78;;;;;;;3.29;95.96;98942.69;4136523;85;21204;-86
2020/12/22 17:02:58;;;;;;;173.43;99.17;;;;;;;3.34;96.24;98929.52;4112431;86;21165;-86
2020/12/22 17:09:00;;;;;;;185.67;105.07;;;;;;;3.44;96.30;98929.95;4256973;83;21206;-86
2020/12/22 17:15:01;;;;;;;183.68;103.80;;;;;;;3.55;96.34;98922.22;4253345;83;21316;-86
2020/12/22 17:21:07;;;;;;;177.05;96.35;;;;;;;3.61;96.42;98923.59;4253053;83;21643;-86
2020/12/22 17:27:08;;;;;;;149.55;83.62;;;;;;;3.59;96.28;98926.64;4250412;83;21150;-86
2020/12/22 17:33:10;;;;;;;133.85;74.00;;;;;;;3.65;96.70;98923.95;4255410;83;22096;-86
2020/12/22 17:39:12;;;;;;;135.28;71.95;;;;;;;3.76;96.66;98929.20;4253994;83;21198;-86
2020/12/22 17:45:13;;;;;;;105.22;60.33;;;;;;;3.85;96.72;98927.23;4251198;83;21944;-87
2020/12/22 17:51:14;;;;;;;77.50;44.03;;;;;;;3.93;97.02;98935.05;4253148;83;22607;-86
2020/12/22 17:57:16;;;;;;;65.87;34.70;;;;;;;4.09;97.46;98935.98;4249410;83;21229;-86
2020/12/22 18:03:18;;;;;;;93.15;50.63;;;;;;;4.26;97.46;98941.27;4239033;83;21612;-86
2020/12/22 18:09:19;;;;;;;142.18;72.90;;;;;;;4.37;97.23;98939.13;4238403;83;21726;-86
2020/12/22 18:15:21;;;;;;;152.25;83.30;;;;;;;4.43;97.21;98952.69;4237339;83;21230;-86
2020/12/22 18:21:23;;;;;;;157.10;82.05;;;;;;;4.51;97.06;98953.75;4237825;83;21621;-87
2020/12/22 18:27:26;;;;;;;157.55;85.35;;;;;;;4.44;96.66;98942.65;4226311;83;21190;-86
2020/12/22 18:33:28;;;;;;;153.27;80.20;;;;;;;4.31;96.50;98952.66;4224845;83;21190;-85
2020/12/22 18:39:29;;;;;;;155.60;83.03;;;;;;;4.28;96.52;98941.70;4240791;83;21202;-86
2020/12/22 18:45:31;;;;;;;146.35;78.72;;;;;;;4.30;96.72;98949.73;4237462;83;21173;-86
2020/12/22 18:51:33;;;;;;;144.75;80.05;;;;;;;4.33;96.62;98949.06;4242838;83;21216;-86
2020/12/22 19:14:35;;;;;;;147.85;80.32;;;;;;;4.29;96.89;98963.04;4385428;79;23223;-86
2020/12/22 19:20:36;;;;;;;137.85;75.85;;;;;;;4.30;97.03;98963.29;4318610;81;21674;-86
2020/12/22 19:26:38;;;;;;;118.37;61.75;;;;;;;4.31;96.99;98957.28;4316030;81;21201;-87
2020/12/22 19:32:39;;;;;;;81.53;39.85;;;;;;;4.41;97.28;98963.09;4311198;81;21219;-88
2020/12/22 19:38:41;;;;;;;93.75;48.63;;;;;;;4.49;97.18;98950.02;4286367;81;21192;-88
2020/12/22 19:44:42;;;;;;;61.83;29.27;;;;;;;4.57;97.19;98965.37;4310309;81;21188;-87
2020/12/22 19:50:44;;;;;;;58.55;28.23;;;;;;;4.70;97.48;98970.25;4311263;81;21314;-86
2020/12/22 19:56:46;;;;;;;56.65;25.10;;;;;;;4.78;97.38;98981.56;4310994;81;21688;-85
2020/12/22 20:02:47;;;;;;;58.23;25.08;;;;;;;4.84;97.46;98966.09;4309630;81;21160;-87
2020/12/22 20:08:50;;;;;;;36.35;19.57;;;;;;;4.85;97.19;98969.61;4305684;81;21217;-87
2020/12/22 20:14:52;;;;;;;36.73;17.30;;;;;;;4.85;97.08;98971.73;4309680;81;21214;-87
2020/12/22 20:20:54;;;;;;;40.50;19.90;;;;;;;4.89;97.25;98969.15;4307409;80;21180;-87
2020/12/22 20:26:56;;;;;;;36.60;16.50;;;;;;;4.87;97.21;98970.63;4306025;81;21173;-86
2020/12/22 20:32:58;;;;;;;32.75;15.63;;;;;;;4.94;97.41;98962.70;4315594;81;21844;-86
2020/12/22 20:39:00;;;;;;;31.52;16.42;;;;;;;5.05;97.32;98965.20;4311514;81;21379;-85
2020/12/22 20:45:03;;;;;;;28.45;12.50;;;;;;;5.05;97.20;98970.63;4309919;81;21217;-86
2020/12/22 20:51:06;;;;;;;26.00;10.90;;;;;;;5.01;97.28;98969.17;4306771;81;21284;-87
2020/12/22 20:57:08;;;;;;;16.70;8.85;;;;;;;4.97;97.14;98964.19;4314097;81;21203;-86
2020/12/22 21:03:09;;;;;;;18.65;8.50;;;;;;;5.01;97.24;98946.67;4310230;81;21198;-87
2020/12/22 21:09:11;;;;;;;13.05;6.97;;;;;;;5.08;97.40;98946.33;4311245;81;21202;-88
2020/12/22 21:15:13;;;;;;;14.78;6.75;;;;;;;5.13;97.51;98947.46;4309627;81;21200;-87
2020/12/22 21:21:26;;;;;;;11.55;6.15;;;;;;;5.25;97.64;98949.36;4309298;81;21187;-87
2020/12/22 21:27:27;;;;;;;13.03;6.08;;;;;;;5.31;97.57;98955.58;4311053;81;21167;-86
2020/12/22 21:33:29;;;;;;;13.72;6.22;;;;;;;5.35;97.38;98957.84;4312420;81;21205;-87
2020/12/22 21:39:31;;;;;;;17.30;7.20;;;;;;;5.44;97.59;98964.50;4308384;81;21641;-87
2020/12/22 21:45:32;;;;;;;17.35;7.15;;;;;;;5.43;97.59;98969.71;4312935;81;21179;-88
2020/12/22 21:51:34;;;;;;;24.65;8.98;;;;;;;5.51;97.56;98974.23;4309811;81;21184;-88
2020/12/22 21:57:36;;;;;;;21.85;10.00;;;;;;;5.57;97.72;98976.93;4316006;81;21643;-87
2020/12/22 22:03:37;;;;;;;16.60;7.53;;;;;;;5.65;97.78;98980.09;4309450;81;21169;-87
2020/12/22 22:09:38;;;;;;;14.63;7.10;;;;;;;5.56;97.41;98984.86;4312344;81;21167;-87
2020/12/22 22:15:43;;;;;;;16.57;7.78;;;;;;;5.57;97.60;98988.59;4296232;81;21713;-86
2020/12/22 22:21:52;;;;;;;24.75;9.93;;;;;;;5.66;97.84;98987.89;4294141;81;21171;-86
2020/12/22 22:27:54;;;;;;;23.30;12.60;;;;;;;5.74;97.79;98997.84;4181572;84;21197;-87
2020/12/22 22:34:01;;;;;;;31.60;16.00;;;;;;;5.72;97.59;98981.64;4301056;81;21219;-86
2020/12/22 22:40:00;;;;;;;29.70;13.85;;;;;;;5.76;97.67;98979.25;4292467;81;21178;-86
2020/12/22 22:46:01;;;;;;;24.87;12.53;;;;;;;5.74;97.60;98981.54;4294916;81;21187;-87
2020/12/22 22:52:04;;;;;;;25.45;12.65;;;;;;;5.75;97.43;98987.19;4300550;81;21157;-87
2020/12/22 22:58:07;;;;;;;22.73;10.05;;;;;;;5.74;97.55;98981.54;4290816;81;21319;-87
2020/12/22 23:04:08;;;;;;;15.72;6.95;;;;;;;5.73;97.46;98977.22;4293883;81;21603;-87
2020/12/22 23:10:10;;;;;;;15.10;7.80;;;;;;;5.78;97.58;98972.91;4226491;82;21210;-86
2020/12/22 23:16:13;;;;;;;17.00;6.28;;;;;;;5.83;97.45;98981.42;4228837;82;21161;-88
2020/12/22 23:22:16;;;;;;;14.28;7.37;;;;;;;5.79;97.47;98973.72;4154392;84;21509;-87
2020/12/22 23:28:18;;;;;;;13.55;6.33;;;;;;;5.81;97.64;98974.17;4228431;82;21168;-87
2020/12/22 23:34:21;;;;;;;33.45;15.15;;;;;;;5.92;97.80;98973.95;4152674;84;21193;-87
2020/12/22 23:40:24;;;;;;;26.23;11.12;;;;;;;5.99;97.68;98975.48;4230256;82;21216;-86
2020/12/22 23:46:26;;;;;;;17.52;6.78;;;;;;;6.02;97.64;98978.88;4234887;82;21152;-87
2020/12/22 23:52:27;;;;;;;26.20;8.73;;;;;;;6.01;97.40;98970.51;4234768;82;21180;-87
2020/12/22 23:58:29;;;;;;;25.68;10.38;;;;;;;6.05;97.56;98978.98;4228048;82;21189;-86
